Time;durP1;ratioP1;P1;durP2;ratioP2;P2;SDS_P1;SDS_P2;PMS_P1;PMS_P2;Temp;Humidity;BMP_temperature;BMP_pressure;BME280_temperature;BME280_humidity;BME280_pressure;Samples;Min_cycle;Max_cycle;Signal;HPM_P1;HPM_P2
2021/07/06 00:02:16;;;;;;;7.90;1.70;;;19.80;99.90;;;;;;5046283;28;20502;-56
2021/07/06 00:04:42;;;;;;;3.20;1.52;;;19.80;99.90;;;;;;5030024;28;20053;-51
2021/07/06 00:07:08;;;;;;;5.57;1.90;;;19.80;99.90;;;;;;5030817;28;20045;-52
2021/07/06 00:09:33;;;;;;;2.60;1.50;;;19.80;99.90;;;;;;5030647;28;20092;-53
2021/07/06 00:11:59;;;;;;;1.65;1.55;;;19.80;99.90;;;;;;5030714;28;20032;-51
2021/07/06 00:14:24;;;;;;;2.60;1.50;;;19.70;99.90;;;;;;5029298;28;20035;-56
2021/07/06 00:16:50;;;;;;;1.58;1.35;;;19.70;99.90;;;;;;5030528;28;20038;-53
2021/07/06 00:19:15;;;;;;;1.60;1.50;;;19.60;99.90;;;;;;5030551;28;20165;-52
2021/07/06 00:21:41;;;;;;;1.58;1.42;;;19.60;99.90;;;;;;5030501;28;20026;-51
2021/07/06 00:24:07;;;;;;;3.47;1.70;;;19.60;99.90;;;;;;5012376;28;20030;-52
2021/07/06 00:26:32;;;;;;;3.35;1.60;;;19.60;99.90;;;;;;5013096;28;20053;-52
2021/07/06 00:28:58;;;;;;;5.28;1.65;;;19.60;99.90;;;;;;5030521;28;20018;-50
2021/07/06 00:31:23;;;;;;;3.97;1.80;;;19.70;99.90;;;;;;5030738;28;20228;-55
2021/07/06 00:33:51;;;;;;;1.67;1.58;;;19.70;99.90;;;;;;5012229;28;20029;-52
2021/07/06 00:36:16;;;;;;;4.18;1.90;;;19.70;99.90;;;;;;5030684;28;20060;-55
2021/07/06 00:38:42;;;;;;;8.27;1.73;;;19.70;99.90;;;;;;5012726;28;20025;-52
2021/07/06 00:41:08;;;;;;;2.00;1.90;;;19.70;99.90;;;;;;5030396;28;20059;-51
2021/07/06 00:43:36;;;;;;;6.43;2.50;;;19.70;99.90;;;;;;5012005;28;20388;-53
2021/07/06 00:46:03;;;;;;;3.00;1.55;;;19.70;99.90;;;;;;5030424;28;20025;-54
2021/07/06 00:48:28;;;;;;;4.90;1.83;;;19.70;99.90;;;;;;5030054;28;20021;-53
2021/07/06 00:50:55;;;;;;;2.17;1.73;;;19.60;99.90;;;;;;5030344;28;20493;-54
2021/07/06 00:53:21;;;;;;;2.45;1.55;;;19.60;99.90;;;;;;5029901;28;20521;-53
2021/07/06 00:55:49;;;;;;;4.78;1.95;;;19.60;99.90;;;;;;5029993;28;20025;-51
2021/07/06 00:58:17;;;;;;;11.60;3.15;;;19.50;99.90;;;;;;5030224;28;20482;-52
2021/07/06 01:00:43;;;;;;;5.05;2.13;;;19.40;99.90;;;;;;5030047;28;20037;-51
2021/07/06 01:03:10;;;;;;;3.95;1.90;;;19.40;99.90;;;;;;5030223;28;20022;-53
2021/07/06 01:05:36;;;;;;;3.35;1.67;;;19.40;99.90;;;;;;5029672;28;20032;-54
2021/07/06 01:08:01;;;;;;;4.78;2.35;;;19.40;99.90;;;;;;5030387;28;20399;-54
2021/07/06 01:10:27;;;;;;;3.15;2.00;;;19.40;99.90;;;;;;5030099;28;20026;-49
2021/07/06 01:12:53;;;;;;;4.85;2.33;;;19.50;99.90;;;;;;5030530;28;20081;-49
2021/07/06 01:15:23;;;;;;;3.67;1.95;;;19.50;99.90;;;;;;5029593;28;20495;-53
2021/07/06 01:18:00;;;;;;;3.95;2.00;;;19.50;99.90;;;;;;5030370;28;20398;-53
2021/07/06 01:20:27;;;;;;;2.00;1.77;;;19.40;99.90;;;;;;5029886;28;20391;-52
2021/07/06 01:22:53;;;;;;;3.00;1.85;;;19.40;99.90;;;;;;5029920;28;20504;-53
2021/07/06 01:25:18;;;;;;;3.42;1.60;;;19.40;99.90;;;;;;5029323;28;20030;-44
2021/07/06 01:27:44;;;;;;;6.40;1.85;;;19.30;99.90;;;;;;5033579;28;20123;-52
2021/07/06 01:30:15;;;;;;;2.05;1.70;;;19.20;99.90;;;;;;5033613;28;20386;-48
2021/07/06 01:32:43;;;;;;;7.50;1.83;;;19.10;99.90;;;;;;5015947;28;20029;-53
2021/07/06 01:35:10;;;;;;;1.98;1.40;;;19.20;99.90;;;;;;5032956;28;20110;-52
2021/07/06 01:37:36;;;;;;;3.40;2.15;;;19.10;99.90;;;;;;5033629;28;20131;-50
2021/07/06 01:40:02;;;;;;;3.80;2.17;;;19.10;99.90;;;;;;5034043;28;20120;-50
2021/07/06 01:42:27;;;;;;;3.75;1.95;;;19.10;99.90;;;;;;5034724;28;20386;-53
2021/07/06 01:45:08;;;;;;;3.28;2.03;;;19.10;99.90;;;;;;5032900;28;20028;-52
2021/07/06 01:47:41;;;;;;;2.88;1.73;;;19.00;99.90;;;;;;5033411;28;20017;-54
2021/07/06 01:50:09;;;;;;;6.28;1.88;;;19.00;99.90;;;;;;5033237;28;20443;-52
2021/07/06 01:52:34;;;;;;;2.33;2.08;;;19.00;99.90;;;;;;5033680;28;20297;-51
2021/07/06 01:55:00;;;;;;;1.95;1.50;;;18.90;99.90;;;;;;5032651;28;20032;-49
2021/07/06 01:57:25;;;;;;;3.15;1.65;;;18.90;99.90;;;;;;5033945;28;20056;-54
2021/07/06 01:59:52;;;;;;;2.92;1.80;;;18.90;99.90;;;;;;5015544;28;20018;-52
2021/07/06 02:02:17;;;;;;;4.50;1.90;;;18.80;99.90;;;;;;5033088;28;20120;-51
2021/07/06 02:04:45;;;;;;;2.30;1.73;;;18.80;99.90;;;;;;5032286;28;20112;-55
2021/07/06 02:07:10;;;;;;;2.90;2.13;;;18.80;99.90;;;;;;5033126;28;20013;-51
2021/07/06 02:09:36;;;;;;;3.80;2.38;;;18.80;99.90;;;;;;5032816;28;20029;-50
2021/07/06 02:12:02;;;;;;;2.80;2.45;;;19.00;99.90;;;;;;5015412;28;20108;-54
2021/07/06 02:14:27;;;;;;;3.30;2.10;;;19.00;99.90;;;;;;5032226;28;20033;-52
2021/07/06 02:16:52;;;;;;;2.42;1.65;;;19.10;99.90;;;;;;5032828;28;20228;-49
2021/07/06 02:19:18;;;;;;;6.65;2.33;;;19.00;99.90;;;;;;5032866;28;20030;-51
2021/07/06 02:21:43;;;;;;;3.78;2.53;;;19.00;99.90;;;;;;5033050;28;20072;-53
2021/07/06 02:24:09;;;;;;;4.25;2.63;;;19.00;99.90;;;;;;5032016;28;20096;-51
2021/07/06 02:26:34;;;;;;;6.57;2.00;;;19.00;99.90;;;;;;5032697;28;20022;-49
2021/07/06 02:29:00;;;;;;;2.53;1.80;;;18.80;99.90;;;;;;5032809;28;20529;-48
2021/07/06 02:31:25;;;;;;;2.25;2.05;;;18.80;99.90;;;;;;5032733;28;20112;-54
2021/07/06 02:33:51;;;;;;;3.83;1.98;;;18.70;99.90;;;;;;5032080;28;20029;-48
2021/07/06 02:36:16;;;;;;;3.88;2.22;;;18.60;99.90;;;;;;5032505;28;20072;-47
2021/07/06 02:38:42;;;;;;;2.92;2.13;;;18.50;99.90;;;;;;5031317;28;20025;-51
2021/07/06 02:41:08;;;;;;;3.42;1.90;;;18.30;99.90;;;;;;5032446;28;20426;-53
2021/07/06 02:43:34;;;;;;;2.40;1.70;;;18.20;99.90;;;;;;5031901;28;20024;-54
2021/07/06 02:45:59;;;;;;;2.65;2.00;;;18.10;99.90;;;;;;5032596;28;20100;-49
2021/07/06 02:51:07;;;;;;;1.88;1.77;;;18.00;99.90;;;;;;5070483;28;20048;-49
2021/07/06 02:53:32;;;;;;;2.85;2.42;;;18.10;99.90;;;;;;5071576;28;20017;-50
2021/07/06 02:55:58;;;;;;;1.80;1.70;;;18.10;99.90;;;;;;5054062;28;20452;-47
2021/07/06 02:58:23;;;;;;;1.92;1.83;;;18.10;99.90;;;;;;5072317;28;20050;-46
2021/07/06 03:00:49;;;;;;;2.83;1.88;;;18.00;99.90;;;;;;5072084;28;20055;-53
2021/07/06 03:03:14;;;;;;;2.30;1.70;;;18.10;99.90;;;;;;5054268;28;20013;-47
2021/07/06 03:05:40;;;;;;;2.97;1.50;;;18.10;99.90;;;;;;5071568;28;20090;-47
2021/07/06 03:08:06;;;;;;;1.60;1.50;;;18.10;99.90;;;;;;5072033;28;20032;-46
2021/07/06 03:10:35;;;;;;;3.70;1.90;;;18.10;99.90;;;;;;5072031;28;20024;-46
2021/07/06 03:13:01;;;;;;;1.77;1.60;;;18.10;99.90;;;;;;5071739;28;20028;-48
2021/07/06 03:15:29;;;;;;;1.98;1.80;;;18.10;99.90;;;;;;5071218;28;20024;-47
2021/07/06 03:17:55;;;;;;;3.42;2.05;;;18.10;99.90;;;;;;5053789;28;20497;-50
2021/07/06 03:20:22;;;;;;;4.53;1.88;;;18.10;99.90;;;;;;5071649;28;20020;-49
2021/07/06 03:22:48;;;;;;;2.35;1.33;;;18.10;99.90;;;;;;5071555;28;20020;-48
2021/07/06 03:25:17;;;;;;;3.50;1.73;;;18.10;99.90;;;;;;5071133;28;20043;-51
2021/07/06 03:27:43;;;;;;;1.95;1.60;;;18.10;99.90;;;;;;5071385;28;20021;-51
2021/07/06 03:30:21;;;;;;;1.95;1.85;;;18.00;99.90;;;;;;5071394;28;20028;-49
2021/07/06 03:32:47;;;;;;;2.75;1.90;;;18.00;99.90;;;;;;5071144;28;20100;-49
2021/07/06 03:35:13;;;;;;;1.63;1.50;;;18.00;99.90;;;;;;5070876;28;20028;-51
2021/07/06 03:37:39;;;;;;;4.15;1.83;;;18.00;99.90;;;;;;5071146;28;20036;-51
2021/07/06 03:40:07;;;;;;;3.97;1.92;;;18.10;99.90;;;;;;5070984;28;20470;-47
2021/07/06 03:42:32;;;;;;;4.07;1.83;;;18.20;99.90;;;;;;5071099;28;20116;-49
2021/07/06 03:44:58;;;;;;;2.00;1.77;;;18.10;99.90;;;;;;5052534;28;20107;-50
2021/07/06 03:47:23;;;;;;;4.78;1.90;;;18.20;99.90;;;;;;5069840;28;20025;-50
2021/07/06 03:49:49;;;;;;;3.28;2.17;;;18.20;99.90;;;;;;5065872;28;20032;-49
2021/07/06 03:52:14;;;;;;;2.45;2.25;;;18.20;99.90;;;;;;5051574;28;20076;-46
2021/07/06 03:54:40;;;;;;;2.78;2.28;;;18.10;99.90;;;;;;5054902;28;20033;-47
2021/07/06 03:57:06;;;;;;;3.97;1.88;;;18.10;99.90;;;;;;5064883;28;20485;-49
2021/07/06 03:59:31;;;;;;;5.47;2.95;;;18.10;99.90;;;;;;5054981;28;20039;-52
2021/07/06 04:01:57;;;;;;;3.38;2.42;;;18.10;99.90;;;;;;5051672;28;20254;-47
2021/07/06 04:04:23;;;;;;;4.43;2.03;;;18.10;99.90;;;;;;5051115;28;20028;-50
2021/07/06 04:06:49;;;;;;;2.92;1.75;;;18.00;99.90;;;;;;5057083;28;20061;-50
2021/07/06 04:09:15;;;;;;;3.72;2.03;;;18.00;99.90;;;;;;5041664;28;20056;-49
2021/07/06 04:11:40;;;;;;;4.70;1.98;;;18.00;99.90;;;;;;5062076;28;20789;-48
2021/07/06 04:14:06;;;;;;;4.20;1.98;;;18.20;99.90;;;;;;5058565;28;20032;-47
2021/07/06 04:16:31;;;;;;;4.95;2.10;;;18.20;99.90;;;;;;5053696;28;20367;-51
2021/07/06 04:18:57;;;;;;;5.72;1.80;;;18.20;99.90;;;;;;5053444;28;20375;-51
2021/07/06 04:21:23;;;;;;;3.22;2.00;;;18.10;99.90;;;;;;5070504;28;20021;-49
2021/07/06 04:23:49;;;;;;;1.98;1.63;;;18.10;99.90;;;;;;5051790;28;20027;-53
2021/07/06 04:26:14;;;;;;;1.90;1.80;;;18.10;99.90;;;;;;5070359;28;20101;-48
2021/07/06 04:28:40;;;;;;;4.15;1.88;;;18.00;99.90;;;;;;5070233;28;20016;-48
2021/07/06 04:31:05;;;;;;;4.57;2.35;;;18.00;99.90;;;;;;5067555;28;20033;-52
2021/07/06 04:33:31;;;;;;;4.22;2.03;;;17.90;99.90;;;;;;5049637;28;20037;-50
2021/07/06 04:35:57;;;;;;;4.55;2.10;;;17.90;99.90;;;;;;5032495;28;20028;-51
2021/07/06 04:38:22;;;;;;;5.00;1.90;;;18.00;99.90;;;;;;5050286;28;20036;-48
2021/07/06 04:40:48;;;;;;;3.67;2.08;;;18.00;99.90;;;;;;5050196;28;20033;-48
2021/07/06 04:43:14;;;;;;;2.03;1.92;;;18.10;99.90;;;;;;5050222;28;20028;-50
2021/07/06 04:45:39;;;;;;;2.50;1.65;;;18.20;99.90;;;;;;5049773;28;20025;-50
2021/07/06 04:48:06;;;;;;;2.47;2.28;;;18.20;99.90;;;;;;5050737;28;20025;-49
2021/07/06 04:50:36;;;;;;;4.07;1.90;;;18.30;99.90;;;;;;5054641;28;20032;-48
2021/07/06 04:53:02;;;;;;;7.03;2.20;;;18.30;99.90;;;;;;5070153;28;20028;-49
2021/07/06 04:55:27;;;;;;;4.63;2.50;;;18.30;99.90;;;;;;5069641;28;20025;-48
2021/07/06 04:57:53;;;;;;;2.20;2.10;;;18.30;99.90;;;;;;5070101;28;20482;-50
2021/07/06 05:00:18;;;;;;;4.22;2.13;;;18.50;99.90;;;;;;5069922;28;20028;-49
2021/07/06 05:02:45;;;;;;;3.95;1.92;;;18.60;99.90;;;;;;5073832;28;20074;-47
2021/07/06 05:05:12;;;;;;;3.08;1.90;;;18.70;99.90;;;;;;5073379;28;20099;-48
2021/07/06 05:07:38;;;;;;;2.53;2.10;;;18.80;99.90;;;;;;5074244;28;20432;-48
2021/07/06 05:10:11;;;;;;;3.10;2.53;;;18.90;99.90;;;;;;5074022;28;20020;-50
2021/07/06 05:12:38;;;;;;;3.25;1.90;;;18.90;99.90;;;;;;5074096;28;20059;-48
2021/07/06 05:15:05;;;;;;;4.80;1.77;;;19.00;99.90;;;;;;5073991;28;20025;-50
2021/07/06 05:17:31;;;;;;;2.05;1.90;;;19.10;99.90;;;;;;5056065;28;20033;-48
2021/07/06 05:19:57;;;;;;;3.78;2.00;;;19.20;99.90;;;;;;5073721;28;20032;-49
2021/07/06 05:22:23;;;;;;;2.00;1.80;;;19.30;99.90;;;;;;5073586;28;20071;-49
2021/07/06 05:24:49;;;;;;;2.38;1.60;;;19.40;99.90;;;;;;5055065;28;20494;-50
2021/07/06 05:27:14;;;;;;;2.13;1.80;;;19.60;99.90;;;;;;5073409;28;20028;-49
2021/07/06 05:29:40;;;;;;;6.43;1.67;;;19.70;99.90;;;;;;5073555;28;20371;-49
2021/07/06 05:32:06;;;;;;;1.70;1.60;;;20.00;99.90;;;;;;5073704;28;20028;-48
2021/07/06 05:34:32;;;;;;;3.22;1.60;;;20.00;99.90;;;;;;5072701;28;20086;-50
2021/07/06 05:36:58;;;;;;;1.60;1.50;;;20.00;99.90;;;;;;5073561;28;20029;-51
2021/07/06 05:39:24;;;;;;;1.70;1.60;;;19.90;99.90;;;;;;5073629;28;20032;-48
2021/07/06 05:41:49;;;;;;;3.17;1.90;;;19.70;99.90;;;;;;5073550;28;20036;-50
2021/07/06 05:44:15;;;;;;;5.80;1.98;;;19.60;99.90;;;;;;5072795;28;20021;-49
2021/07/06 05:46:41;;;;;;;6.32;1.90;;;19.50;99.90;;;;;;5073125;28;20493;-49
2021/07/06 05:49:07;;;;;;;2.80;1.95;;;19.30;99.90;;;;;;5073195;28;20032;-51
2021/07/06 05:51:32;;;;;;;3.95;2.05;;;19.30;99.90;;;;;;5073810;28;20448;-53
2021/07/06 05:53:58;;;;;;;2.05;1.85;;;19.30;99.90;;;;;;5073871;28;20056;-49
2021/07/06 05:56:23;;;;;;;5.63;2.35;;;19.40;99.90;;;;;;5072650;28;20029;-52
2021/07/06 05:58:49;;;;;;;1.70;1.60;;;19.50;99.90;;;;;;5072720;28;20090;-51
2021/07/06 06:01:16;;;;;;;2.92;1.98;;;19.60;99.90;;;;;;5072960;28;20028;-50
2021/07/06 06:03:41;;;;;;;4.82;1.90;;;19.50;99.90;;;;;;5072116;28;20029;-48
2021/07/06 06:06:10;;;;;;;8.30;2.22;;;19.40;99.90;;;;;;5073063;28;20298;-49
2021/07/06 06:08:36;;;;;;;3.60;1.63;;;19.50;99.90;;;;;;5072935;28;20436;-49
2021/07/06 06:11:03;;;;;;;5.88;2.10;;;19.60;99.90;;;;;;5054869;28;20032;-48
2021/07/06 06:13:29;;;;;;;2.03;1.88;;;19.70;99.90;;;;;;5070858;28;20036;-49
2021/07/06 06:15:54;;;;;;;4.93;1.80;;;19.70;99.90;;;;;;5072996;28;20426;-50
2021/07/06 06:18:20;;;;;;;1.92;1.63;;;19.70;99.90;;;;;;5072717;28;20375;-49
2021/07/06 06:20:45;;;;;;;2.10;1.52;;;19.70;99.90;;;;;;5072606;28;20075;-48
2021/07/06 06:23:11;;;;;;;4.75;1.90;;;19.70;99.90;;;;;;5072576;28;20029;-51
2021/07/06 06:25:36;;;;;;;2.28;2.08;;;19.80;99.90;;;;;;5072293;28;20092;-48
2021/07/06 06:28:03;;;;;;;2.10;2.00;;;19.90;99.90;;;;;;5072697;28;20029;-49
2021/07/06 06:30:28;;;;;;;2.47;1.80;;;19.80;99.90;;;;;;5072823;28;20028;-50
2021/07/06 06:32:55;;;;;;;2.95;1.73;;;19.90;99.90;;;;;;5072650;28;20389;-48
2021/07/06 06:35:21;;;;;;;4.13;1.90;;;19.90;99.90;;;;;;5070688;28;20021;-49
2021/07/06 06:37:47;;;;;;;3.20;2.40;;;19.80;99.90;;;;;;5064696;28;20490;-52
2021/07/06 06:40:12;;;;;;;3.22;2.40;;;19.90;99.90;;;;;;5067256;28;20067;-48
2021/07/06 06:42:38;;;;;;;2.75;2.00;;;19.80;99.90;;;;;;5062872;28;20438;-50
2021/07/06 06:45:06;;;;;;;4.28;2.45;;;19.70;99.90;;;;;;5068259;28;20440;-51
2021/07/06 06:47:32;;;;;;;5.30;1.65;;;19.60;99.90;;;;;;5070715;28;20066;-50
2021/07/06 06:49:57;;;;;;;2.22;1.85;;;19.60;99.90;;;;;;5051769;28;20471;-52
2021/07/06 06:52:23;;;;;;;2.45;2.25;;;19.50;99.90;;;;;;5056615;28;20043;-57
2021/07/06 06:54:48;;;;;;;5.07;1.92;;;19.60;99.90;;;;;;5038872;28;20032;-54
2021/07/06 06:57:14;;;;;;;5.47;2.25;;;19.60;99.90;;;;;;5067719;28;20063;-62
2021/07/06 06:59:40;;;;;;;3.75;2.55;;;19.70;99.90;;;;;;5070349;28;20075;-59
2021/07/06 07:02:19;;;;;;;2.63;2.25;;;19.70;99.90;;;;;;5065843;28;20116;-58
2021/07/06 07:04:46;;;;;;;3.63;2.38;;;19.70;99.90;;;;;;5050654;28;20096;-64
2021/07/06 07:07:13;;;;;;;3.85;1.92;;;19.80;99.90;;;;;;5037859;28;20029;-59
2021/07/06 07:09:39;;;;;;;3.00;2.53;;;19.90;99.90;;;;;;5051476;28;20022;-56
2021/07/06 07:12:05;;;;;;;3.03;1.88;;;20.00;99.90;;;;;;5063869;28;20039;-51
2021/07/06 07:14:30;;;;;;;7.40;2.10;;;20.00;99.90;;;;;;5070173;28;20028;-50
2021/07/06 07:16:56;;;;;;;4.60;2.15;;;20.10;99.90;;;;;;5069322;28;20508;-52
2021/07/06 07:19:21;;;;;;;8.98;2.50;;;20.10;99.90;;;;;;5071339;28;20037;-52
2021/07/06 07:21:47;;;;;;;6.85;2.78;;;20.20;99.90;;;;;;5052320;28;20436;-52
2021/07/06 07:24:13;;;;;;;3.05;2.38;;;20.20;99.90;;;;;;5050651;28;20048;-49
2021/07/06 07:26:38;;;;;;;8.25;2.20;;;20.30;99.90;;;;;;5052561;28;20021;-52
2021/07/06 07:29:05;;;;;;;3.90;1.90;;;20.40;99.90;;;;;;5058635;28;20509;-44
2021/07/06 07:31:31;;;;;;;6.72;2.50;;;20.40;99.90;;;;;;5053240;28;20036;-49
2021/07/06 07:33:58;;;;;;;4.72;2.40;;;20.40;99.90;;;;;;5068884;28;20017;-48
2021/07/06 07:36:24;;;;;;;7.43;2.90;;;20.50;99.90;;;;;;5065467;28;20037;-45
2021/07/06 07:38:50;;;;;;;6.65;1.92;;;20.60;99.90;;;;;;5051007;28;20032;-45
2021/07/06 07:41:15;;;;;;;3.75;2.42;;;20.60;99.90;;;;;;5053088;28;20031;-45
2021/07/06 07:43:41;;;;;;;3.80;2.55;;;20.60;99.90;;;;;;5067236;28;20047;-46
2021/07/06 07:46:06;;;;;;;5.80;2.67;;;20.60;99.90;;;;;;5068733;28;20090;-46
2021/07/06 07:48:32;;;;;;;6.82;3.00;;;20.40;99.90;;;;;;5058294;28;20052;-45
2021/07/06 07:50:57;;;;;;;6.85;2.72;;;20.30;99.90;;;;;;5056005;28;20033;-49
2021/07/06 07:53:23;;;;;;;5.70;2.65;;;20.20;99.90;;;;;;5052194;28;20124;-46
2021/07/06 07:55:51;;;;;;;5.40;2.83;;;20.10;99.90;;;;;;5070098;28;20115;-45
2021/07/06 07:58:16;;;;;;;8.75;2.72;;;20.00;99.90;;;;;;5051272;28;20113;-47
2021/07/06 08:00:42;;;;;;;3.50;2.67;;;19.90;99.90;;;;;;5049618;28;20107;-46
2021/07/06 08:03:08;;;;;;;6.38;3.08;;;19.90;99.90;;;;;;5051716;28;20045;-47
2021/07/06 08:05:34;;;;;;;4.93;3.20;;;19.80;99.90;;;;;;5064423;28;20061;-51
2021/07/06 08:07:59;;;;;;;5.35;3.20;;;19.70;99.90;;;;;;5049197;28;20483;-45
2021/07/06 08:10:25;;;;;;;9.00;3.20;;;19.70;99.90;;;;;;5053276;28;20040;-45
2021/07/06 08:12:50;;;;;;;4.97;2.95;;;19.60;99.90;;;;;;5057969;28;20029;-45
2021/07/06 08:15:16;;;;;;;6.00;3.25;;;19.50;99.90;;;;;;5053910;28;20017;-46
2021/07/06 08:17:43;;;;;;;5.57;3.38;;;19.50;99.90;;;;;;5053954;28;20497;-45
2021/07/06 08:20:09;;;;;;;7.30;4.07;;;19.50;99.90;;;;;;5063364;28;20032;-45
2021/07/06 08:22:35;;;;;;;3.90;3.03;;;19.40;99.90;;;;;;5048682;28;20025;-47
2021/07/06 08:25:01;;;;;;;4.03;3.17;;;19.40;99.90;;;;;;5057583;28;20013;-49
2021/07/06 08:27:27;;;;;;;7.57;3.67;;;19.40;99.90;;;;;;5069540;28;20031;-55
2021/07/06 08:29:52;;;;;;;6.55;3.72;;;19.40;99.90;;;;;;5068646;28;20358;-58
2021/07/06 08:32:18;;;;;;;9.95;3.40;;;19.30;99.90;;;;;;5035101;28;20025;-60
2021/07/06 08:34:43;;;;;;;6.10;3.30;;;19.30;99.90;;;;;;5051555;28;20033;-47
2021/07/06 08:37:09;;;;;;;5.35;3.38;;;19.20;99.90;;;;;;5050537;28;20044;-46
2021/07/06 08:39:35;;;;;;;7.05;3.03;;;19.10;99.90;;;;;;5062125;28;20060;-46
2021/07/06 08:42:01;;;;;;;4.22;2.50;;;19.10;99.90;;;;;;5049866;28;20037;-47
2021/07/06 08:44:27;;;;;;;9.00;3.70;;;19.10;99.90;;;;;;5050084;28;20025;-51
2021/07/06 08:46:52;;;;;;;7.60;3.08;;;19.00;99.90;;;;;;5055012;28;20025;-45
2021/07/06 08:49:22;;;;;;;2.75;2.55;;;19.00;99.90;;;;;;5064082;28;20029;-49
2021/07/06 08:51:52;;;;;;;3.28;2.88;;;19.00;99.90;;;;;;5059212;28;20040;-60
2021/07/06 08:54:18;;;;;;;3.08;2.80;;;18.90;99.90;;;;;;5069393;28;20405;-55
2021/07/06 08:56:44;;;;;;;8.80;3.55;;;18.90;99.90;;;;;;5069571;28;20517;-49
2021/07/06 08:59:10;;;;;;;4.05;3.08;;;18.90;99.90;;;;;;5069893;28;20104;-51
2021/07/06 09:01:35;;;;;;;5.10;2.80;;;18.90;99.90;;;;;;5068263;28;20579;-51
2021/07/06 09:04:03;;;;;;;7.72;3.85;;;19.00;99.90;;;;;;5050947;28;20470;-48
2021/07/06 09:06:31;;;;;;;6.13;3.20;;;19.00;99.90;;;;;;5050838;28;20033;-50
2021/07/06 09:09:19;;;;;;;6.82;5.18;;;19.00;99.90;;;;;;5049562;28;20117;-50
2021/07/06 09:11:53;;;;;;;10.32;4.90;;;18.90;99.90;;;;;;5049715;28;20111;-53
2021/07/06 09:14:19;;;;;;;6.28;4.45;;;18.90;99.90;;;;;;5047308;28;20025;-53
2021/07/06 09:16:46;;;;;;;5.03;3.33;;;18.90;99.90;;;;;;5049515;28;20078;-51
2021/07/06 09:19:24;;;;;;;9.93;3.67;;;18.90;99.90;;;;;;5049574;28;20068;-53
2021/07/06 09:22:13;;;;;;;3.58;2.55;;;18.90;99.90;;;;;;5049612;28;20437;-50
2021/07/06 09:24:40;;;;;;;4.25;3.25;;;19.00;99.90;;;;;;5048921;28;20024;-49
2021/07/06 09:27:39;;;;;;;8.10;3.55;;;18.90;99.90;;;;;;5049513;28;20032;-53
2021/07/06 09:30:16;;;;;;;18.80;3.83;;;18.80;99.90;;;;;;5049495;28;20029;-56
2021/07/06 09:32:44;;;;;;;3.78;3.47;;;18.90;99.90;;;;;;5049605;28;20457;-53
2021/07/06 09:35:12;;;;;;;5.65;3.60;;;18.80;99.90;;;;;;5030997;28;20083;-50
2021/07/06 09:37:43;;;;;;;4.47;3.67;;;18.80;99.90;;;;;;5049390;28;20390;-50
2021/07/06 09:40:31;;;;;;;7.55;4.45;;;18.80;99.90;;;;;;5049383;28;20017;-53
2021/07/06 09:43:15;;;;;;;6.95;4.25;;;18.80;99.90;;;;;;5049407;28;20075;-49
2021/07/06 09:45:42;;;;;;;8.35;3.83;;;18.80;99.90;;;;;;5048839;28;20421;-49
2021/07/06 09:48:09;;;;;;;14.15;4.38;;;18.80;99.90;;;;;;5051734;28;20513;-49
2021/07/06 09:50:34;;;;;;;5.38;3.65;;;18.80;99.90;;;;;;5052742;28;20543;-48
2021/07/06 09:53:00;;;;;;;8.52;4.05;;;18.90;99.90;;;;;;5052918;28;20037;-53
2021/07/06 09:55:30;;;;;;;4.10;3.70;;;18.90;99.90;;;;;;5052104;28;20398;-50
2021/07/06 09:57:56;;;;;;;3.50;3.20;;;19.00;99.90;;;;;;5034734;28;20021;-50
2021/07/06 10:00:22;;;;;;;5.22;3.35;;;19.10;99.90;;;;;;5053164;28;20029;-50
2021/07/06 10:02:47;;;;;;;4.00;2.75;;;19.10;99.90;;;;;;5052678;28;20037;-47
2021/07/06 10:05:20;;;;;;;3.22;2.67;;;19.00;99.90;;;;;;5052305;28;20067;-49
2021/07/06 10:07:46;;;;;;;2.78;2.58;;;19.00;99.90;;;;;;5052840;28;20024;-49
2021/07/06 10:10:13;;;;;;;3.03;2.55;;;19.00;99.90;;;;;;5052661;28;20330;-52
2021/07/06 10:12:41;;;;;;;4.63;2.05;;;19.00;99.90;;;;;;5052469;28;20413;-51
2021/07/06 10:15:09;;;;;;;4.47;2.00;;;19.10;99.90;;;;;;5051733;28;20615;-51
2021/07/06 10:17:37;;;;;;;1.88;1.60;;;19.00;99.90;;;;;;5052672;28;20025;-54
2021/07/06 10:20:08;;;;;;;3.05;1.40;;;19.00;99.90;;;;;;5052643;28;20021;-50
2021/07/06 10:22:34;;;;;;;6.18;1.58;;;19.00;99.90;;;;;;5052330;28;20033;-52
2021/07/06 10:25:05;;;;;;;2.40;1.70;;;19.00;99.90;;;;;;5051618;28;20029;-53
2021/07/06 10:27:32;;;;;;;3.38;1.40;;;19.00;99.90;;;;;;5052205;28;20036;-51
2021/07/06 10:30:17;;;;;;;1.40;1.30;;;19.10;99.90;;;;;;5052320;28;20100;-52
2021/07/06 10:32:51;;;;;;;5.28;1.77;;;19.10;99.90;;;;;;5052138;28;20039;-51
2021/07/06 10:35:36;;;;;;;3.15;1.80;;;19.20;99.90;;;;;;5051531;28;20070;-49
2021/07/06 10:38:31;;;;;;;2.95;1.77;;;19.20;99.90;;;;;;5051980;28;20035;-50
2021/07/06 10:41:35;;;;;;;6.47;1.40;;;19.30;99.90;;;;;;5052882;28;20021;-51
2021/07/06 10:44:02;;;;;;;3.70;1.65;;;19.30;99.90;;;;;;5020335;28;20191;-49
2021/07/06 10:46:38;;;;;;;4.78;1.45;;;19.40;99.90;;;;;;5052267;28;20028;-49
2021/07/06 10:49:13;;;;;;;3.28;1.60;;;19.40;99.90;;;;;;5052165;28;20024;-49
2021/07/06 10:51:38;;;;;;;2.63;1.67;;;19.40;99.90;;;;;;5053064;28;20127;-51
2021/07/06 10:54:15;;;;;;;2.53;1.90;;;19.50;99.90;;;;;;5051307;28;20108;-48
2021/07/06 10:56:43;;;;;;;3.28;1.92;;;19.60;99.90;;;;;;5052680;28;20189;-59
2021/07/06 10:59:21;;;;;;;6.47;2.05;;;19.60;99.90;;;;;;5063752;28;20399;-47
2021/07/06 11:01:49;;;;;;;4.03;2.00;;;19.80;99.90;;;;;;5056691;28;20052;-47
2021/07/06 11:04:45;;;;;;;2.00;1.40;;;20.00;99.90;;;;;;5067840;28;20032;-52
2021/07/06 11:07:13;;;;;;;3.10;1.60;;;20.10;99.90;;;;;;5069880;28;20029;-53
2021/07/06 11:09:38;;;;;;;2.85;1.92;;;20.10;99.90;;;;;;5068405;28;20052;-49
2021/07/06 11:12:30;;;;;;;2.47;1.92;;;20.20;99.90;;;;;;5059084;28;20080;-48
2021/07/06 11:15:00;;;;;;;2.78;2.13;;;20.30;99.90;;;;;;5065507;28;20497;-50
2021/07/06 11:17:42;;;;;;;7.50;1.63;;;20.40;99.90;;;;;;5056138;28;20117;-49
2021/07/06 11:20:12;;;;;;;4.70;1.70;;;20.40;99.90;;;;;;5055569;28;20025;-51
2021/07/06 11:22:54;;;;;;;2.38;1.83;;;20.40;99.90;;;;;;5053896;28;20366;-52
2021/07/06 11:25:31;;;;;;;1.60;1.50;;;20.30;99.90;;;;;;5071096;28;20067;-50
2021/07/06 11:28:03;;;;;;;2.65;2.25;;;20.20;99.90;;;;;;5071563;28;20012;-49
2021/07/06 11:30:40;;;;;;;3.03;1.38;;;20.10;99.90;;;;;;5053448;28;20393;-47
2021/07/06 11:33:13;;;;;;;1.88;1.77;;;20.20;99.90;;;;;;5060845;28;20057;-49
2021/07/06 11:35:47;;;;;;;2.90;1.70;;;20.20;99.90;;;;;;5050700;28;20013;-48
2021/07/06 11:38:23;;;;;;;2.00;1.45;;;20.20;99.90;;;;;;5051371;28;20053;-49
2021/07/06 11:41:00;;;;;;;1.20;1.15;;;20.30;99.90;;;;;;5033093;28;20120;-48
2021/07/06 11:43:28;;;;;;;3.53;1.40;;;20.20;99.90;;;;;;5050507;28;20102;-49
2021/07/06 11:45:56;;;;;;;1.52;1.30;;;20.00;99.90;;;;;;5051025;28;20063;-50
2021/07/06 11:48:25;;;;;;;2.45;1.90;;;20.00;99.90;;;;;;5051032;28;20017;-50
2021/07/06 11:50:51;;;;;;;1.20;1.10;;;20.00;99.90;;;;;;5050615;28;20139;-47
2021/07/06 11:53:27;;;;;;;3.05;1.27;;;20.00;99.90;;;;;;5050459;28;20101;-48
2021/07/06 11:55:54;;;;;;;1.67;1.20;;;19.90;99.90;;;;;;5050763;28;20024;-48
2021/07/06 11:58:23;;;;;;;2.65;1.50;;;20.00;99.90;;;;;;5050922;28;20036;-48
2021/07/06 12:00:49;;;;;;;3.58;1.67;;;20.00;99.90;;;;;;5050641;28;20037;-47
2021/07/06 12:03:22;;;;;;;1.73;1.50;;;20.00;99.90;;;;;;5032581;28;20547;-51
2021/07/06 12:05:50;;;;;;;1.40;1.30;;;20.00;99.90;;;;;;5050658;28;20071;-48
2021/07/06 12:08:27;;;;;;;5.45;1.50;;;20.00;99.90;;;;;;5050578;28;20017;-46
2021/07/06 12:11:10;;;;;;;5.15;1.60;;;20.00;99.90;;;;;;5050360;28;20059;-52
2021/07/06 12:13:41;;;;;;;2.25;1.50;;;20.10;99.90;;;;;;5049741;28;20458;-46
2021/07/06 12:16:16;;;;;;;3.78;1.35;;;20.00;99.90;;;;;;5055474;28;20028;-51
2021/07/06 12:19:00;;;;;;;1.52;1.42;;;20.00;99.90;;;;;;5063289;28;20031;-46
2021/07/06 12:21:40;;;;;;;4.15;1.52;;;19.90;99.90;;;;;;5068479;28;20067;-50
2021/07/06 12:24:09;;;;;;;5.10;1.80;;;19.90;99.90;;;;;;5049831;28;20051;-52
2021/07/06 12:26:40;;;;;;;3.47;1.70;;;19.70;99.90;;;;;;5068487;28;20025;-55
2021/07/06 12:29:06;;;;;;;1.70;1.60;;;19.70;99.90;;;;;;5067915;28;20063;-47
2021/07/06 12:31:33;;;;;;;3.58;1.75;;;19.70;99.90;;;;;;5067633;28;20548;-52
2021/07/06 12:34:16;;;;;;;4.70;1.75;;;19.70;99.90;;;;;;5067826;28;20039;-52
2021/07/06 12:36:57;;;;;;;2.85;1.80;;;19.70;99.90;;;;;;5064714;28;20108;-50
2021/07/06 12:39:33;;;;;;;5.60;1.52;;;19.70;99.90;;;;;;5050586;28;20029;-46
2021/07/06 12:42:06;;;;;;;1.77;1.42;;;19.70;99.90;;;;;;5058155;28;20577;-50
2021/07/06 12:44:34;;;;;;;2.67;1.50;;;19.70;99.90;;;;;;5050194;28;20486;-47
2021/07/06 12:47:34;;;;;;;1.73;1.63;;;19.80;99.90;;;;;;5036862;28;20600;-48
2021/07/06 12:50:17;;;;;;;2.35;1.50;;;19.70;99.90;;;;;;5049845;28;20025;-49
2021/07/06 12:52:47;;;;;;;2.65;1.50;;;19.70;99.90;;;;;;5060215;28;20112;-46
2021/07/06 12:55:13;;;;;;;2.75;1.83;;;19.60;99.90;;;;;;5069194;28;20025;-47